createdAt,value
2017-02-02T00:00:18.133Z,0
2017-02-02T00:01:31.389Z,0
2017-02-02T00:02:44.422Z,0
2017-02-02T00:03:57.434Z,0
2017-02-02T00:05:10.434Z,0
2017-02-02T00:06:23.452Z,0
2017-02-02T00:07:36.480Z,0
2017-02-02T00:08:49.501Z,0
2017-02-02T00:10:02.539Z,0
2017-02-02T00:11:14.790Z,0
2017-02-02T00:12:27.802Z,0
2017-02-02T00:13:40.806Z,0
2017-02-02T00:14:53.795Z,0
2017-02-02T00:16:06.819Z,0
2017-02-02T00:17:19.860Z,0
2017-02-02T00:18:32.890Z,0
2017-02-02T00:19:45.879Z,0
2017-02-02T00:20:58.902Z,0
2017-02-02T00:22:11.561Z,0
2017-02-02T00:23:24.594Z,0
2017-02-02T00:24:37.614Z,0
2017-02-02T00:25:50.632Z,0
2017-02-02T00:27:03.636Z,0
2017-02-02T00:28:16.631Z,0
2017-02-02T00:29:29.628Z,0
2017-02-02T00:30:42.666Z,0
2017-02-02T00:31:55.662Z,0
2017-02-02T00:33:08.671Z,0
2017-02-02T00:34:21.554Z,0
2017-02-02T00:35:34.586Z,0
2017-02-02T00:36:47.613Z,0
2017-02-02T00:38:00.621Z,0
2017-02-02T00:39:13.871Z,0
2017-02-02T00:40:26.870Z,0
2017-02-02T00:41:39.915Z,0
2017-02-02T00:42:52.936Z,0
2017-02-02T00:44:05.574Z,0
2017-02-02T00:45:18.620Z,0
2017-02-02T00:46:31.638Z,0
2017-02-02T00:47:44.691Z,0
2017-02-02T00:48:57.717Z,0
2017-02-02T00:50:10.358Z,0
2017-02-02T00:51:23.407Z,0
2017-02-02T00:52:36.417Z,0
2017-02-02T00:53:49.420Z,0
2017-02-02T00:55:02.422Z,0
2017-02-02T00:56:13.893Z,0
2017-02-02T00:57:26.902Z,0
2017-02-02T00:58:39.922Z,0
2017-02-02T00:59:52.927Z,0
2017-02-02T01:01:05.950Z,0
2017-02-02T01:02:18.592Z,0
2017-02-02T01:03:31.607Z,0
2017-02-02T01:04:44.609Z,0
2017-02-02T01:05:57.605Z,0
2017-02-02T01:07:10.868Z,0
2017-02-02T01:08:23.893Z,0
2017-02-02T01:09:36.947Z,0
2017-02-02T01:10:49.964Z,0
2017-02-02T01:12:02.977Z,0
2017-02-02T01:13:15.609Z,0
2017-02-02T01:14:28.644Z,0
2017-02-02T01:15:41.647Z,0
2017-02-02T01:16:54.648Z,0
2017-02-02T01:18:07.292Z,0
2017-02-02T01:19:19.539Z,0
2017-02-02T01:20:32.184Z,0
2017-02-02T01:21:45.197Z,0
2017-02-02T01:22:58.264Z,0
2017-02-02T01:24:11.296Z,0
2017-02-02T01:25:23.959Z,0
2017-02-02T01:26:36.985Z,0
2017-02-02T01:27:50.002Z,0
2017-02-02T01:29:03.270Z,0
2017-02-02T01:30:16.297Z,0
2017-02-02T01:31:29.319Z,0
2017-02-02T01:32:42.368Z,0
2017-02-02T01:33:55.403Z,0
2017-02-02T01:35:08.426Z,0
2017-02-02T01:36:21.081Z,0
2017-02-02T01:37:34.126Z,0
2017-02-02T01:38:47.161Z,0
2017-02-02T01:40:00.444Z,0
2017-02-02T01:41:13.485Z,0
2017-02-02T01:42:26.503Z,0
2017-02-02T01:43:39.545Z,0
2017-02-02T01:44:52.565Z,0
2017-02-02T01:46:05.594Z,0
2017-02-02T01:47:17.832Z,0
2017-02-02T01:48:30.860Z,0
2017-02-02T01:49:43.903Z,0
2017-02-02T01:50:56.907Z,0
2017-02-02T01:52:09.942Z,0
2017-02-02T01:53:22.990Z,0
2017-02-02T01:54:35.994Z,0
2017-02-02T01:55:49.005Z,0
2017-02-02T01:57:02.035Z,0
2017-02-02T01:58:14.685Z,0
2017-02-02T01:59:27.694Z,0
2017-02-02T02:00:40.685Z,0
2017-02-02T02:01:53.966Z,0
2017-02-02T02:03:06.992Z,0
2017-02-02T02:04:19.983Z,0
2017-02-02T02:05:33.004Z,0
2017-02-02T02:06:46.008Z,0
2017-02-02T02:07:59.020Z,0
2017-02-02T02:09:12.048Z,0
2017-02-02T02:10:25.065Z,0
2017-02-02T02:11:38.101Z,0
2017-02-02T02:12:51.110Z,0
2017-02-02T02:14:04.118Z,0
2017-02-02T02:15:17.115Z,0
2017-02-02T02:16:30.117Z,0
2017-02-02T02:17:43.130Z,0
2017-02-02T02:18:56.150Z,0
2017-02-02T02:20:09.172Z,0
2017-02-02T02:21:21.442Z,0
2017-02-02T02:22:34.463Z,0
2017-02-02T02:23:47.466Z,0
2017-02-02T02:25:00.459Z,0
2017-02-02T02:26:13.489Z,0
2017-02-02T02:27:26.505Z,0
2017-02-02T02:28:39.502Z,0
2017-02-02T02:29:52.536Z,0
2017-02-02T02:31:05.569Z,0
2017-02-02T02:32:18.234Z,0
2017-02-02T02:33:31.262Z,0
2017-02-02T02:34:44.273Z,0
2017-02-02T02:35:57.274Z,0
2017-02-02T02:37:10.277Z,0
2017-02-02T02:38:23.291Z,0
2017-02-02T02:39:36.289Z,0
2017-02-02T02:40:49.283Z,0
2017-02-02T02:42:02.297Z,0
2017-02-02T02:43:15.305Z,0
2017-02-02T02:44:28.322Z,0
2017-02-02T02:45:41.369Z,0
2017-02-02T02:46:54.364Z,0
2017-02-02T02:48:07.356Z,0
2017-02-02T02:49:20.433Z,0
2017-02-02T02:50:33.468Z,0
2017-02-02T02:51:46.493Z,0
2017-02-02T02:52:59.547Z,0
2017-02-02T02:54:12.564Z,0
2017-02-02T02:55:24.819Z,0
2017-02-02T02:56:37.823Z,0
2017-02-02T02:57:50.819Z,0
2017-02-02T02:59:03.814Z,0
2017-02-02T03:00:16.843Z,0
2017-02-02T03:01:29.858Z,0
2017-02-02T03:02:42.861Z,0
2017-02-02T03:03:55.859Z,0
2017-02-02T03:05:08.922Z,0
2017-02-02T03:06:21.944Z,0
2017-02-02T03:07:34.947Z,0
2017-02-02T03:08:47.596Z,0
2017-02-02T03:10:00.614Z,0
2017-02-02T03:11:13.634Z,0
2017-02-02T03:12:26.920Z,0
2017-02-02T03:13:39.926Z,0
2017-02-02T03:14:52.944Z,0
2017-02-02T03:16:05.559Z,0
2017-02-02T03:17:18.181Z,0
2017-02-02T03:18:31.505Z,0
2017-02-02T03:19:44.521Z,0
2017-02-02T03:20:57.550Z,0
2017-02-02T03:22:10.169Z,0
2017-02-02T03:23:23.189Z,0
2017-02-02T03:24:36.236Z,0
2017-02-02T03:25:49.252Z,0
2017-02-02T03:27:02.271Z,0
2017-02-02T03:28:15.298Z,0
2017-02-02T03:29:28.323Z,0
2017-02-02T03:30:41.339Z,0
2017-02-02T03:31:54.365Z,0
2017-02-02T03:33:07.434Z,0
2017-02-02T03:34:20.446Z,0
2017-02-02T03:35:33.073Z,0
2017-02-02T03:36:46.088Z,0
2017-02-02T03:37:59.110Z,0
2017-02-02T03:39:12.137Z,0
2017-02-02T03:40:25.185Z,0
2017-02-02T03:41:38.207Z,0
2017-02-02T03:42:51.227Z,0
2017-02-02T03:44:04.251Z,0
2017-02-02T03:45:17.290Z,0
2017-02-02T03:46:30.286Z,0
2017-02-02T03:47:43.282Z,0
2017-02-02T03:48:56.295Z,0
2017-02-02T03:50:09.326Z,0
2017-02-02T03:51:21.838Z,0
2017-02-02T03:52:34.840Z,0
2017-02-02T03:53:47.842Z,0
2017-02-02T03:55:00.885Z,0
2017-02-02T03:56:13.920Z,0
2017-02-02T03:57:26.169Z,0
2017-02-02T03:58:39.220Z,0
2017-02-02T03:59:52.233Z,0
2017-02-02T04:01:05.263Z,0
2017-02-02T04:02:17.902Z,0
2017-02-02T04:03:30.528Z,0
2017-02-02T04:04:43.542Z,0
2017-02-02T04:05:56.542Z,0
2017-02-02T04:07:09.194Z,0
2017-02-02T04:08:22.240Z,0
2017-02-02T04:09:34.884Z,0
2017-02-02T04:10:47.886Z,0
2017-02-02T04:12:00.920Z,0
2017-02-02T04:13:13.958Z,0
2017-02-02T04:14:26.995Z,0
2017-02-02T04:15:40.037Z,0
2017-02-02T04:16:53.051Z,0
2017-02-02T04:18:06.054Z,0
2017-02-02T04:19:18.677Z,0
2017-02-02T04:20:31.676Z,0
2017-02-02T04:21:44.720Z,0
2017-02-02T04:22:57.840Z,0
2017-02-02T04:24:10.862Z,0
2017-02-02T04:25:23.907Z,0
2017-02-02T04:26:36.529Z,0
2017-02-02T04:27:49.524Z,0
2017-02-02T04:29:02.547Z,0
2017-02-02T04:30:15.578Z,0
2017-02-02T04:31:28.212Z,0
2017-02-02T04:32:41.260Z,0
2017-02-02T04:33:54.302Z,0
2017-02-02T04:35:07.324Z,0
2017-02-02T04:36:20.316Z,0
2017-02-02T04:37:33.319Z,0
2017-02-02T04:38:46.357Z,0
2017-02-02T04:39:59.022Z,0
2017-02-02T04:41:11.655Z,0
2017-02-02T04:42:24.667Z,0
2017-02-02T04:43:37.695Z,0
2017-02-02T04:44:50.716Z,0
2017-02-02T04:46:03.738Z,0
2017-02-02T04:47:16.763Z,0
2017-02-02T04:48:29.769Z,0
2017-02-02T04:49:42.763Z,0
2017-02-02T04:50:56.039Z,0
2017-02-02T04:52:08.655Z,0
2017-02-02T04:53:21.679Z,0
2017-02-02T04:54:34.697Z,0
2017-02-02T04:55:47.697Z,0
2017-02-02T04:57:00.744Z,0
2017-02-02T04:58:13.763Z,0
2017-02-02T04:59:26.818Z,0
2017-02-02T05:00:39.812Z,0
2017-02-02T05:01:52.857Z,0
2017-02-02T05:03:05.844Z,0
2017-02-02T05:04:18.475Z,0
2017-02-02T05:05:31.510Z,0
2017-02-02T05:06:44.532Z,0
2017-02-02T05:07:57.809Z,0
2017-02-02T05:09:10.434Z,0
2017-02-02T05:10:23.469Z,0
2017-02-02T05:11:36.093Z,0
2017-02-02T05:12:49.140Z,0
2017-02-02T05:14:02.185Z,0
2017-02-02T05:15:14.813Z,0
2017-02-02T05:16:27.834Z,0
2017-02-02T05:17:40.881Z,0
2017-02-02T05:18:53.919Z,0
2017-02-02T05:20:06.962Z,0
2017-02-02T05:21:19.214Z,0
2017-02-02T05:22:32.231Z,0
2017-02-02T05:23:45.274Z,0
2017-02-02T05:24:58.275Z,0
2017-02-02T05:26:10.551Z,0
2017-02-02T05:27:23.196Z,0
2017-02-02T05:28:36.219Z,0
2017-02-02T05:29:49.235Z,0
2017-02-02T05:31:02.256Z,0
2017-02-02T05:32:14.881Z,0
2017-02-02T05:33:27.923Z,0
2017-02-02T05:34:40.940Z,0
2017-02-02T05:35:53.940Z,0
2017-02-02T05:37:06.981Z,0
2017-02-02T05:38:20.009Z,0
2017-02-02T05:39:33.027Z,0
2017-02-02T05:40:46.333Z,0
2017-02-02T05:41:59.372Z,0
2017-02-02T05:43:12.393Z,0
2017-02-02T05:44:25.411Z,0
2017-02-02T05:45:38.425Z,0
2017-02-02T05:46:51.427Z,0
2017-02-02T05:48:04.444Z,0
2017-02-02T05:49:17.487Z,0
2017-02-02T05:50:30.532Z,0
2017-02-02T05:51:43.536Z,0
2017-02-02T05:52:56.552Z,0
2017-02-02T05:54:09.575Z,0
2017-02-02T05:55:22.623Z,0
2017-02-02T05:56:35.250Z,0
2017-02-02T05:57:48.285Z,0
2017-02-02T05:59:01.290Z,0
2017-02-02T06:00:14.313Z,0
2017-02-02T06:01:27.328Z,0
2017-02-02T06:02:40.323Z,0
2017-02-02T06:03:53.349Z,0
2017-02-02T06:05:06.383Z,0
2017-02-02T06:06:19.411Z,0
2017-02-02T06:07:32.400Z,0
2017-02-02T06:08:45.420Z,0
2017-02-02T06:09:58.426Z,0
2017-02-02T06:11:11.448Z,0
2017-02-02T06:12:24.486Z,0
2017-02-02T06:13:37.479Z,0
2017-02-02T06:14:50.483Z,0
2017-02-02T06:16:03.474Z,0
2017-02-02T06:17:16.117Z,0
2017-02-02T06:18:29.162Z,0
2017-02-02T06:19:42.169Z,0
2017-02-02T06:20:55.179Z,0
2017-02-02T06:22:08.186Z,0
2017-02-02T06:23:21.210Z,0
2017-02-02T06:24:34.225Z,0
2017-02-02T06:25:47.213Z,0
2017-02-02T06:27:00.221Z,0
2017-02-02T06:28:12.479Z,0
2017-02-02T06:29:25.090Z,0
2017-02-02T06:30:38.075Z,0
2017-02-02T06:31:51.096Z,0
2017-02-02T06:33:04.098Z,0
2017-02-02T06:34:17.113Z,5
2017-02-02T06:35:30.130Z,5
2017-02-02T06:36:43.158Z,5
2017-02-02T06:37:56.185Z,5
2017-02-02T06:39:09.203Z,5
2017-02-02T06:40:21.855Z,10
2017-02-02T06:41:34.877Z,10
2017-02-02T06:42:47.880Z,10
2017-02-02T06:44:00.880Z,10
2017-02-02T06:45:13.910Z,15
2017-02-02T06:46:26.949Z,15
2017-02-02T06:47:39.993Z,15
2017-02-02T06:48:53.022Z,20
2017-02-02T06:50:06.041Z,20
2017-02-02T06:51:19.051Z,20
2017-02-02T06:52:32.084Z,25
2017-02-02T06:53:45.121Z,25
2017-02-02T06:54:58.149Z,30
2017-02-02T06:56:10.760Z,30
2017-02-02T06:57:23.784Z,35
2017-02-02T06:58:36.809Z,35
2017-02-02T06:59:49.437Z,35
2017-02-02T07:01:02.476Z,40
2017-02-02T07:02:14.717Z,40
2017-02-02T07:03:27.726Z,45
2017-02-02T07:04:40.343Z,50
2017-02-02T07:05:53.377Z,50
2017-02-02T07:07:06.382Z,55
2017-02-02T07:08:19.401Z,55
2017-02-02T07:09:32.046Z,60
2017-02-02T07:10:45.060Z,60
2017-02-02T07:11:58.067Z,65
2017-02-02T07:13:10.687Z,65
2017-02-02T07:14:23.705Z,70
2017-02-02T07:15:36.320Z,70
2017-02-02T07:16:49.347Z,75
2017-02-02T07:18:02.372Z,75
2017-02-02T07:19:15.008Z,80
2017-02-02T07:20:28.038Z,80
2017-02-02T07:21:40.698Z,85
2017-02-02T07:22:53.720Z,90
2017-02-02T07:24:06.747Z,90
2017-02-02T07:25:19.797Z,95
2017-02-02T07:26:32.443Z,95
2017-02-02T07:27:45.477Z,100
2017-02-02T07:28:58.502Z,100
2017-02-02T07:30:11.519Z,105
2017-02-02T07:31:24.548Z,105
2017-02-02T07:32:37.154Z,110
2017-02-02T07:33:50.168Z,110
2017-02-02T07:35:03.184Z,115
2017-02-02T07:36:15.080Z,115
2017-02-02T07:37:28.124Z,120
2017-02-02T07:38:40.742Z,120
2017-02-02T07:39:53.769Z,125
2017-02-02T07:41:06.790Z,125
2017-02-02T07:42:19.817Z,130
2017-02-02T07:43:32.860Z,130
2017-02-02T07:44:45.877Z,135
2017-02-02T07:45:58.926Z,135
2017-02-02T07:47:11.937Z,140
2017-02-02T07:48:24.940Z,140
2017-02-02T07:49:37.991Z,140
2017-02-02T07:50:51.010Z,145
2017-02-02T07:52:03.631Z,145
2017-02-02T07:53:16.283Z,150
2017-02-02T07:54:29.312Z,155
2017-02-02T07:55:42.336Z,155
2017-02-02T07:56:55.356Z,155
2017-02-02T07:58:08.385Z,160
2017-02-02T07:59:21.012Z,160
2017-02-02T08:00:34.077Z,160
2017-02-02T08:01:47.091Z,165
2017-02-02T08:03:00.133Z,165
2017-02-02T08:04:13.130Z,170
2017-02-02T08:05:25.737Z,170
2017-02-02T08:06:38.771Z,175
2017-02-02T08:07:51.779Z,175
2017-02-02T08:09:04.795Z,175
2017-02-02T08:10:17.037Z,180
2017-02-02T08:11:30.083Z,185
2017-02-02T08:12:43.112Z,185
2017-02-02T08:13:56.129Z,185
2017-02-02T08:15:09.154Z,185
2017-02-02T08:16:22.231Z,185
2017-02-02T08:17:34.857Z,190
2017-02-02T08:18:47.516Z,190
2017-02-02T08:20:00.554Z,195
2017-02-02T08:21:13.578Z,195
2017-02-02T08:22:26.593Z,195
2017-02-02T08:23:39.598Z,200
2017-02-02T08:24:52.641Z,200
2017-02-02T08:26:05.660Z,200
2017-02-02T08:27:18.664Z,205
2017-02-02T08:28:31.679Z,205
2017-02-02T08:29:44.320Z,205
2017-02-02T08:30:57.342Z,210
2017-02-02T08:32:10.367Z,210
2017-02-02T08:33:23.388Z,210
2017-02-02T08:34:36.404Z,215
2017-02-02T08:35:49.400Z,220
2017-02-02T08:37:02.426Z,220
2017-02-02T08:38:15.421Z,220
2017-02-02T08:39:28.471Z,220
2017-02-02T08:40:40.742Z,225
2017-02-02T08:41:53.780Z,225
2017-02-02T08:43:06.808Z,225
2017-02-02T08:44:19.825Z,225
2017-02-02T08:45:32.845Z,225
2017-02-02T08:46:45.473Z,225
2017-02-02T08:47:58.488Z,225
2017-02-02T08:49:11.504Z,230
2017-02-02T08:50:24.533Z,230
2017-02-02T08:51:37.579Z,235
2017-02-02T08:52:50.613Z,235
2017-02-02T08:54:03.648Z,235
2017-02-02T08:55:16.680Z,240
2017-02-02T08:56:29.719Z,240
2017-02-02T08:57:42.601Z,240
2017-02-02T08:58:55.669Z,240
2017-02-02T09:00:08.726Z,240
2017-02-02T09:01:21.763Z,240
2017-02-02T09:02:34.793Z,240
2017-02-02T09:03:47.831Z,240
2017-02-02T09:05:00.876Z,240
2017-02-02T09:06:13.152Z,240
2017-02-02T09:07:26.175Z,240
2017-02-02T09:08:39.197Z,240
2017-02-02T09:09:51.857Z,245
2017-02-02T09:11:04.861Z,245
2017-02-02T09:12:17.100Z,245
2017-02-02T09:13:30.097Z,250
2017-02-02T09:14:42.721Z,245
2017-02-02T09:15:55.772Z,245
2017-02-02T09:17:08.810Z,250
2017-02-02T09:18:21.827Z,250
2017-02-02T09:19:34.826Z,255
2017-02-02T09:20:47.844Z,250
2017-02-02T09:22:00.849Z,255
2017-02-02T09:23:13.843Z,260
2017-02-02T09:24:26.488Z,260
2017-02-02T09:25:39.476Z,265
2017-02-02T09:26:52.498Z,265
2017-02-02T09:28:05.494Z,260
2017-02-02T09:29:18.539Z,265
2017-02-02T09:30:31.568Z,265
2017-02-02T09:31:44.589Z,265
2017-02-02T09:32:57.610Z,275
2017-02-02T09:34:10.603Z,265
2017-02-02T09:35:23.631Z,265
2017-02-02T09:36:36.668Z,270
2017-02-02T09:37:49.701Z,270
2017-02-02T09:39:02.739Z,275
2017-02-02T09:40:15.762Z,275
2017-02-02T09:41:28.786Z,275
2017-02-02T09:42:41.827Z,275
2017-02-02T09:43:54.868Z,280
2017-02-02T09:45:07.934Z,275
2017-02-02T09:46:20.581Z,280
2017-02-02T09:47:33.606Z,280
2017-02-02T09:48:46.634Z,280
2017-02-02T09:49:59.656Z,275
2017-02-02T09:51:12.703Z,280
2017-02-02T09:52:25.721Z,275
2017-02-02T09:53:38.389Z,280
2017-02-02T09:54:51.414Z,280
2017-02-02T09:56:04.074Z,275
2017-02-02T09:57:16.723Z,280
2017-02-02T09:58:29.779Z,280
2017-02-02T09:59:42.848Z,280
2017-02-02T10:00:55.861Z,285
2017-02-02T10:02:08.487Z,285
2017-02-02T10:03:21.538Z,280
2017-02-02T10:04:34.580Z,285
2017-02-02T10:05:47.614Z,280
2017-02-02T10:07:00.665Z,280
2017-02-02T10:08:12.893Z,280
2017-02-02T10:09:25.914Z,280
2017-02-02T10:10:38.549Z,280
2017-02-02T10:11:51.573Z,285
2017-02-02T10:13:04.599Z,285
2017-02-02T10:14:17.226Z,285
2017-02-02T10:15:30.235Z,295
2017-02-02T10:16:42.941Z,290
2017-02-02T10:17:56.007Z,295
2017-02-02T10:19:09.048Z,295
2017-02-02T10:20:22.073Z,300
2017-02-02T10:21:35.095Z,300
2017-02-02T10:22:47.740Z,300
2017-02-02T10:24:00.758Z,300
2017-02-02T10:25:13.420Z,300
2017-02-02T10:26:26.448Z,295
2017-02-02T10:27:39.490Z,300
2017-02-02T10:28:52.144Z,300
2017-02-02T10:30:05.171Z,300
2017-02-02T10:31:17.457Z,305
2017-02-02T10:32:30.526Z,310
2017-02-02T10:33:43.157Z,325
2017-02-02T10:34:56.195Z,370
2017-02-02T10:36:08.863Z,425
2017-02-02T10:37:21.512Z,450
2017-02-02T10:38:34.541Z,445
2017-02-02T10:39:47.582Z,445
2017-02-02T10:41:00.586Z,425
2017-02-02T10:42:13.646Z,425
2017-02-02T10:43:26.689Z,435
2017-02-02T10:44:39.737Z,455
2017-02-02T10:45:52.020Z,475
2017-02-02T10:47:05.035Z,490
2017-02-02T10:48:17.704Z,490
2017-02-02T10:49:30.727Z,480
2017-02-02T10:50:43.774Z,475
2017-02-02T10:51:56.818Z,470
2017-02-02T10:53:09.863Z,460
2017-02-02T10:54:22.887Z,450
2017-02-02T10:55:35.925Z,435
2017-02-02T10:56:48.968Z,415
2017-02-02T10:58:01.978Z,405
2017-02-02T10:59:14.663Z,400
2017-02-02T11:00:27.731Z,415
2017-02-02T11:01:40.730Z,410
2017-02-02T11:02:52.980Z,410
2017-02-02T11:04:06.004Z,425
2017-02-02T11:05:18.627Z,420
2017-02-02T11:06:31.668Z,415
2017-02-02T11:07:44.721Z,400
2017-02-02T11:08:57.738Z,395
2017-02-02T11:10:09.633Z,385
2017-02-02T11:11:22.679Z,375
2017-02-02T11:12:35.689Z,360
2017-02-02T11:13:48.710Z,350
2017-02-02T11:15:01.735Z,345
2017-02-02T11:16:13.984Z,340
2017-02-02T11:17:27.035Z,330
2017-02-02T11:18:39.297Z,330
2017-02-02T11:19:52.325Z,320
2017-02-02T11:21:05.343Z,320
2017-02-02T11:22:18.410Z,315
2017-02-02T11:23:31.436Z,310
2017-02-02T11:24:44.447Z,310
2017-02-02T11:25:57.472Z,315
2017-02-02T11:27:10.123Z,310
2017-02-02T11:28:23.161Z,305
2017-02-02T11:29:36.186Z,310
2017-02-02T11:30:49.228Z,325
2017-02-02T11:32:02.256Z,335
2017-02-02T11:33:14.881Z,355
2017-02-02T11:34:27.926Z,370
2017-02-02T11:35:40.569Z,385
2017-02-02T11:36:53.606Z,390
2017-02-02T11:38:06.635Z,385
2017-02-02T11:39:19.634Z,395
2017-02-02T11:40:32.673Z,420
2017-02-02T11:41:45.926Z,420
2017-02-02T11:42:58.949Z,405
2017-02-02T11:44:11.588Z,405
2017-02-02T11:45:24.615Z,405
2017-02-02T11:46:37.652Z,410
2017-02-02T11:47:50.309Z,395
2017-02-02T11:49:03.326Z,385
2017-02-02T11:50:16.362Z,360
2017-02-02T11:51:29.393Z,335
2017-02-02T11:52:42.485Z,345
2017-02-02T11:53:55.107Z,380
2017-02-02T11:55:07.726Z,390
2017-02-02T11:56:19.619Z,405
2017-02-02T11:57:32.698Z,395
2017-02-02T11:58:45.760Z,365
2017-02-02T11:59:58.403Z,355
2017-02-02T12:01:11.411Z,315
2017-02-02T12:02:24.452Z,265
2017-02-02T12:03:37.099Z,220
2017-02-02T12:04:50.169Z,195
2017-02-02T12:06:03.171Z,185
2017-02-02T12:07:16.193Z,185
2017-02-02T12:08:29.235Z,185
2017-02-02T12:09:42.307Z,175
2017-02-02T12:10:55.354Z,165
2017-02-02T12:12:08.398Z,160
2017-02-02T12:13:21.443Z,165
2017-02-02T12:14:34.483Z,160
2017-02-02T12:15:47.528Z,155
2017-02-02T12:17:00.561Z,150
2017-02-02T12:18:12.442Z,150
2017-02-02T12:19:25.087Z,155
2017-02-02T12:20:38.094Z,155
2017-02-02T12:21:51.140Z,150
2017-02-02T12:23:04.161Z,150
2017-02-02T12:24:16.836Z,150
2017-02-02T12:25:29.850Z,150
2017-02-02T12:26:42.467Z,155
2017-02-02T12:27:55.492Z,155
2017-02-02T12:29:08.486Z,160
2017-02-02T12:30:20.755Z,165
2017-02-02T12:31:33.801Z,175
2017-02-02T12:32:46.829Z,175
2017-02-02T12:33:59.872Z,175
2017-02-02T12:35:11.764Z,180
2017-02-02T12:36:24.413Z,180
2017-02-02T12:37:37.451Z,175
2017-02-02T12:38:50.458Z,175
2017-02-02T12:40:03.504Z,175
2017-02-02T12:41:15.740Z,165
2017-02-02T12:42:28.789Z,160
2017-02-02T12:43:41.455Z,150
2017-02-02T12:44:54.505Z,145
2017-02-02T12:46:07.154Z,145
2017-02-02T12:47:19.794Z,145
2017-02-02T12:48:32.822Z,145
2017-02-02T12:49:45.811Z,145
2017-02-02T12:50:58.809Z,145
2017-02-02T12:52:11.864Z,150
2017-02-02T12:53:24.534Z,155
2017-02-02T12:54:37.197Z,155
2017-02-02T12:55:50.222Z,160
2017-02-02T12:57:02.486Z,160
2017-02-02T12:58:15.508Z,170
2017-02-02T12:59:28.559Z,175
2017-02-02T13:00:41.581Z,175
2017-02-02T13:01:54.223Z,180
2017-02-02T13:03:06.890Z,185
2017-02-02T13:04:19.964Z,190
2017-02-02T13:05:33.018Z,190
2017-02-02T13:06:46.028Z,195
2017-02-02T13:07:58.655Z,205
2017-02-02T13:09:11.673Z,215
2017-02-02T13:10:24.689Z,205
2017-02-02T13:11:37.701Z,205
2017-02-02T13:12:50.736Z,215
2017-02-02T13:14:03.767Z,215
2017-02-02T13:15:16.807Z,215
2017-02-02T13:16:29.832Z,210
2017-02-02T13:17:42.875Z,215
2017-02-02T13:18:55.515Z,215
2017-02-02T13:20:08.565Z,215
2017-02-02T13:21:21.561Z,215
2017-02-02T13:22:34.563Z,215
2017-02-02T13:23:47.653Z,215
2017-02-02T13:25:00.669Z,215
2017-02-02T13:26:13.313Z,215
2017-02-02T13:27:26.340Z,225
2017-02-02T13:28:39.336Z,225
2017-02-02T13:29:52.385Z,225
2017-02-02T13:31:05.427Z,240
2017-02-02T13:32:17.669Z,245
2017-02-02T13:33:30.687Z,250
2017-02-02T13:34:43.715Z,260
2017-02-02T13:35:56.729Z,265
2017-02-02T13:37:09.385Z,265
2017-02-02T13:38:22.431Z,260
2017-02-02T13:39:35.478Z,250
2017-02-02T13:40:48.523Z,245
2017-02-02T13:42:01.558Z,250
2017-02-02T13:43:14.631Z,245
2017-02-02T13:44:27.295Z,240
2017-02-02T13:45:40.324Z,235
2017-02-02T13:46:52.984Z,230
2017-02-02T13:48:06.021Z,220
2017-02-02T13:49:18.270Z,225
2017-02-02T13:50:31.319Z,220
2017-02-02T13:51:44.355Z,215
2017-02-02T13:52:57.381Z,205
2017-02-02T13:54:10.080Z,200
2017-02-02T13:55:23.113Z,185
2017-02-02T13:56:35.746Z,180
2017-02-02T13:57:48.787Z,175
2017-02-02T13:59:01.830Z,175
2017-02-02T14:00:14.884Z,175
2017-02-02T14:01:27.925Z,175
2017-02-02T14:02:40.950Z,170
2017-02-02T14:03:53.992Z,170
2017-02-02T14:05:07.034Z,175
2017-02-02T14:06:20.080Z,170
2017-02-02T14:07:33.108Z,170
2017-02-02T14:08:46.176Z,170
2017-02-02T14:09:59.213Z,170
2017-02-02T14:11:12.213Z,170
2017-02-02T14:12:25.259Z,165
2017-02-02T14:13:38.280Z,160
2017-02-02T14:14:51.322Z,155
2017-02-02T14:16:04.326Z,155
2017-02-02T14:17:17.376Z,155
2017-02-02T14:18:30.411Z,150
2017-02-02T14:19:43.435Z,145
2017-02-02T14:20:56.435Z,140
2017-02-02T14:22:09.472Z,135
2017-02-02T14:23:22.493Z,140
2017-02-02T14:24:35.145Z,140
2017-02-02T14:25:47.797Z,145
2017-02-02T14:27:00.457Z,150
2017-02-02T14:28:13.491Z,155
2017-02-02T14:29:26.505Z,165
2017-02-02T14:30:39.531Z,170
2017-02-02T14:31:52.218Z,170
2017-02-02T14:33:05.261Z,170
2017-02-02T14:34:17.893Z,165
2017-02-02T14:35:30.941Z,165
2017-02-02T14:36:44.023Z,165
2017-02-02T14:37:57.058Z,170
2017-02-02T14:39:09.691Z,165
2017-02-02T14:40:22.715Z,160
2017-02-02T14:41:35.739Z,155
2017-02-02T14:42:48.756Z,145
2017-02-02T14:44:01.803Z,135
2017-02-02T14:45:14.455Z,125
2017-02-02T14:46:27.478Z,120
2017-02-02T14:47:40.538Z,115
2017-02-02T14:48:53.569Z,105
2017-02-02T14:50:05.813Z,105
2017-02-02T14:51:18.459Z,100
2017-02-02T14:52:31.509Z,95
2017-02-02T14:53:44.529Z,90
2017-02-02T14:54:57.576Z,85
2017-02-02T14:56:10.235Z,80
2017-02-02T14:57:23.263Z,80
2017-02-02T14:58:36.301Z,75
2017-02-02T14:59:49.335Z,75
2017-02-02T15:01:01.994Z,70
2017-02-02T15:02:15.040Z,70
2017-02-02T15:03:27.664Z,65
2017-02-02T15:04:40.702Z,65
2017-02-02T15:05:53.730Z,65
2017-02-02T15:07:06.751Z,65
2017-02-02T15:08:19.392Z,65
2017-02-02T15:09:32.422Z,65
2017-02-02T15:10:45.060Z,60
2017-02-02T15:11:58.087Z,60
2017-02-02T15:13:11.132Z,60
2017-02-02T15:14:24.173Z,60
2017-02-02T15:15:37.223Z,55
2017-02-02T15:16:50.241Z,60
2017-02-02T15:18:03.259Z,60
2017-02-02T15:19:16.305Z,60
2017-02-02T15:20:29.334Z,60
2017-02-02T15:21:42.367Z,60
2017-02-02T15:22:55.365Z,55
2017-02-02T15:24:07.993Z,55
2017-02-02T15:25:21.005Z,55
2017-02-02T15:26:34.014Z,55
2017-02-02T15:27:46.672Z,55
2017-02-02T15:28:59.734Z,55
2017-02-02T15:30:11.992Z,50
2017-02-02T15:31:24.663Z,50
2017-02-02T15:32:37.709Z,45
2017-02-02T15:33:49.580Z,40
2017-02-02T15:35:02.231Z,40
2017-02-02T15:36:15.251Z,35
2017-02-02T15:37:28.271Z,35
2017-02-02T15:38:40.939Z,30
2017-02-02T15:39:53.957Z,30
2017-02-02T15:41:06.601Z,25
2017-02-02T15:42:19.622Z,25
2017-02-02T15:43:32.647Z,25
2017-02-02T15:44:45.677Z,25
2017-02-02T15:45:58.695Z,25
2017-02-02T15:47:11.709Z,20
2017-02-02T15:48:24.755Z,20
2017-02-02T15:49:37.798Z,15
2017-02-02T15:50:50.819Z,15
2017-02-02T15:52:03.847Z,10
2017-02-02T15:53:16.885Z,10
2017-02-02T15:54:29.892Z,10
2017-02-02T15:55:42.978Z,10
2017-02-02T15:56:55.608Z,5
2017-02-02T15:58:07.475Z,5
2017-02-02T15:59:20.122Z,5
2017-02-02T16:00:33.169Z,5
2017-02-02T16:01:46.214Z,5
2017-02-02T16:02:59.252Z,5
2017-02-02T16:04:12.280Z,5
2017-02-02T16:05:25.326Z,0
2017-02-02T16:06:38.346Z,0
2017-02-02T16:07:51.344Z,0
2017-02-02T16:09:04.364Z,0
2017-02-02T16:10:17.415Z,0
2017-02-02T16:11:30.455Z,0
2017-02-02T16:12:43.518Z,0
2017-02-02T16:13:55.793Z,0
2017-02-02T16:15:08.093Z,0
2017-02-02T16:16:20.760Z,0
2017-02-02T16:17:33.788Z,0
2017-02-02T16:18:46.461Z,0
2017-02-02T16:19:59.727Z,0
2017-02-02T16:21:12.369Z,0
2017-02-02T16:22:25.411Z,0
2017-02-02T16:23:38.414Z,0
2017-02-02T16:24:51.439Z,0
2017-02-02T16:26:04.084Z,0
2017-02-02T16:27:17.124Z,0
2017-02-02T16:28:29.765Z,0
2017-02-02T16:29:42.019Z,0
2017-02-02T16:30:55.041Z,0
2017-02-02T16:32:08.106Z,0
2017-02-02T16:33:20.750Z,0
2017-02-02T16:34:33.397Z,0
2017-02-02T16:35:46.404Z,0
2017-02-02T16:36:59.441Z,0
2017-02-02T16:38:12.099Z,0
2017-02-02T16:39:24.761Z,0
2017-02-02T16:40:37.785Z,0
2017-02-02T16:41:50.829Z,0
2017-02-02T16:43:03.825Z,0
2017-02-02T16:44:16.863Z,0
2017-02-02T16:45:29.866Z,0
2017-02-02T16:46:42.883Z,0
2017-02-02T16:47:55.525Z,0
2017-02-02T16:49:08.557Z,0
2017-02-02T16:50:21.578Z,0
2017-02-02T16:51:33.849Z,0
2017-02-02T16:52:46.495Z,0
2017-02-02T16:53:59.539Z,0
2017-02-02T16:55:12.598Z,0
2017-02-02T16:56:25.621Z,0
2017-02-02T16:57:38.653Z,0
2017-02-02T16:58:51.699Z,0
2017-02-02T17:00:04.833Z,0
2017-02-02T17:01:17.467Z,0
2017-02-02T17:02:30.483Z,0
2017-02-02T17:03:43.122Z,0
2017-02-02T17:04:55.751Z,0
2017-02-02T17:06:08.814Z,0
2017-02-02T17:07:21.839Z,0
2017-02-02T17:08:34.884Z,0
2017-02-02T17:09:47.951Z,0
2017-02-02T17:11:00.584Z,0
2017-02-02T17:12:13.630Z,0
2017-02-02T17:13:26.669Z,0
2017-02-02T17:14:39.718Z,0
2017-02-02T17:15:52.764Z,0
2017-02-02T17:17:05.777Z,0
2017-02-02T17:18:18.780Z,0
2017-02-02T17:19:32.073Z,0
2017-02-02T17:20:45.097Z,0